Time;durP1;ratioP1;P1;durP2;ratioP2;P2;SDS_P1;SDS_P2;PMS_P1;PMS_P2;Temp;Humidity;BMP_temperature;BMP_pressure;BME280_temperature;BME280_humidity;BME280_pressure;Samples;Min_cycle;Max_cycle;Signal;HPM_P1;HPM_P2
2022/08/23 00:02:19;;;;;;;6.18;2.83;;;;;;;18.22;65.71;101150.03;7400954;19;20026;-67
2022/08/23 00:04:51;;;;;;;5.03;2.78;;;;;;;18.18;65.85;101140.50;7399306;19;20517;-67
2022/08/23 00:07:19;;;;;;;3.90;2.67;;;;;;;18.17;66.33;101146.75;7400377;19;20498;-67
2022/08/23 00:09:48;;;;;;;3.03;2.40;;;;;;;18.13;66.51;101134.56;7398746;19;20015;-67
2022/08/23 00:12:19;;;;;;;3.10;2.75;;;;;;;18.10;67.02;101142.66;7400993;19;20039;-68
2022/08/23 00:14:51;;;;;;;5.38;2.67;;;;;;;18.07;67.05;101139.22;7399323;19;20010;-66
2022/08/23 00:17:20;;;;;;;3.17;2.65;;;;;;;18.04;67.36;101138.50;7398978;19;20027;-66
2022/08/23 00:19:51;;;;;;;5.95;2.92;;;;;;;18.00;67.59;101127.16;7398108;19;20343;-66
2022/08/23 00:22:20;;;;;;;4.55;3.00;;;;;;;17.97;67.79;101132.63;7400168;19;20018;-66
2022/08/23 00:24:48;;;;;;;5.18;3.00;;;;;;;17.96;68.11;101136.22;7398576;19;20478;-66
2022/08/23 00:27:19;;;;;;;6.63;2.97;;;;;;;17.94;68.33;101130.09;7400058;19;20078;-66
2022/08/23 00:29:51;;;;;;;4.97;3.28;;;;;;;17.91;68.78;101132.88;7399185;19;20011;-66
2022/08/23 00:32:22;;;;;;;4.63;2.80;;;;;;;17.89;68.65;101132.97;7398489;19;20027;-66
2022/08/23 00:34:53;;;;;;;6.30;3.30;;;;;;;17.89;68.82;101129.41;7397813;19;20026;-66
2022/08/23 00:37:23;;;;;;;3.85;2.83;;;;;;;17.88;68.87;101130.34;7399978;19;20007;-66
2022/08/23 00:39:52;;;;;;;4.28;2.78;;;;;;;17.89;68.91;101124.13;7399917;19;20022;-66
2022/08/23 00:47:58;;;;;;;7.05;3.55;;;;;;;17.90;69.50;101129.34;7399974;19;20507;-66
2022/08/23 00:50:35;;;;;;;5.68;3.08;;;;;;;17.92;69.34;101130.16;7397721;19;20078;-66
2022/08/23 00:53:10;;;;;;;4.05;2.83;;;;;;;17.92;69.28;101122.19;7398969;19;20035;-66
2022/08/23 00:55:40;;;;;;;7.38;3.00;;;;;;;17.95;69.51;101123.00;7399291;19;20018;-66
2022/08/23 00:58:09;;;;;;;4.88;3.00;;;;;;;17.94;69.59;101126.59;7400463;19;20343;-66
2022/08/23 01:00:38;;;;;;;3.92;3.05;;;;;;;17.95;69.79;101131.81;7397418;19;20011;-66
2022/08/23 01:03:10;;;;;;;4.65;3.45;;;;;;;17.95;69.83;101131.81;7398632;19;20038;-66
2022/08/23 01:05:48;;;;;;;5.45;3.28;;;;;;;17.97;69.77;101131.75;7398115;19;20019;-66
2022/08/23 01:08:16;;;;;;;4.20;3.05;;;;;;;17.98;70.12;101134.31;7398541;19;20022;-66
2022/08/23 01:10:51;;;;;;;3.58;2.63;;;;;;;17.97;70.05;101137.94;7396749;19;20488;-66
2022/08/23 01:13:25;;;;;;;6.40;3.40;;;;;;;17.96;70.76;101138.88;7398312;19;20014;-66
2022/08/23 01:15:58;;;;;;;3.60;3.17;;;;;;;17.91;70.50;101133.72;7395559;19;20042;-66
2022/08/23 01:18:30;;;;;;;5.70;2.83;;;;;;;17.88;70.30;101123.25;7393423;19;20035;-66
2022/08/23 01:21:08;;;;;;;6.70;3.65;;;;;;;17.85;70.02;101131.34;7393715;19;20036;-66
2022/08/23 01:23:45;;;;;;;5.57;3.60;;;;;;;17.84;70.15;101131.44;7392930;19;20014;-66
2022/08/23 01:26:15;;;;;;;4.45;3.30;;;;;;;17.81;70.06;101126.28;7395343;19;20098;-66
2022/08/23 01:28:45;;;;;;;4.75;3.25;;;;;;;17.80;70.64;101130.72;7395224;19;20014;-66
2022/08/23 01:31:14;;;;;;;4.25;3.22;;;;;;;17.79;70.25;101130.78;7392540;19;20023;-67
2022/08/23 01:33:44;;;;;;;5.47;3.53;;;;;;;17.79;70.78;101128.13;7392486;19;20027;-66
2022/08/23 01:36:15;;;;;;;4.93;3.40;;;;;;;17.79;70.78;101130.78;7394319;19;20343;-66
2022/08/23 01:38:47;;;;;;;5.00;3.13;;;;;;;17.76;70.53;101126.47;7394881;19;20018;-66
2022/08/23 01:41:15;;;;;;;5.82;3.22;;;;;;;17.76;70.46;101129.13;7394243;19;20028;-66
2022/08/23 01:43:44;;;;;;;6.68;3.20;;;;;;;17.75;70.80;101138.91;7392328;19;20039;-66
2022/08/23 01:46:16;;;;;;;4.07;3.30;;;;;;;17.75;70.71;101130.06;7394261;19;20019;-66
2022/08/23 01:48:47;;;;;;;5.45;3.38;;;;;;;17.72;70.78;101124.91;7394674;19;20011;-66
2022/08/23 01:51:16;;;;;;;6.53;3.35;;;;;;;17.69;71.21;101123.25;7392233;19;20496;-66
2022/08/23 01:53:48;;;;;;;3.95;3.00;;;;;;;17.67;71.23;101126.91;7392955;19;20022;-66
2022/08/23 01:56:18;;;;;;;4.20;3.13;;;;;;;17.63;71.22;101120.88;7394952;19;20174;-66
2022/08/23 01:58:47;;;;;;;5.68;3.53;;;;;;;17.59;71.42;101127.22;7401990;19;20034;-66
2022/08/23 02:01:16;;;;;;;4.60;3.20;;;;;;;17.54;71.39;101121.28;7402564;19;20007;-65
2022/08/23 02:03:45;;;;;;;6.53;3.42;;;;;;;17.51;71.68;101116.13;7399988;19;20423;-66
2022/08/23 02:06:14;;;;;;;4.53;3.17;;;;;;;17.47;71.68;101120.69;7400932;19;20368;-65
2022/08/23 02:11:27;;;;;;;35.85;22.05;;;;;;;17.44;71.44;101112.88;7399205;19;20081;-65
2022/08/23 02:13:58;;;;;;;14.10;9.55;;;;;;;17.43;71.75;101114.66;7400415;19;20077;-65
2022/08/23 02:16:41;;;;;;;12.95;8.35;;;;;;;17.43;72.01;101127.91;7397215;19;20028;-65
2022/08/23 02:19:12;;;;;;;7.43;4.43;;;;;;;17.43;71.85;101117.31;7398658;19;20014;-66
2022/08/23 02:21:42;;;;;;;6.45;4.22;;;;;;;17.42;72.03;101122.69;7399592;19;20028;-66
2022/08/23 02:24:13;;;;;;;6.10;4.18;;;;;;;17.40;72.07;101122.78;7400303;19;20379;-66
2022/08/23 02:26:48;;;;;;;5.75;3.47;;;;;;;17.40;71.79;101122.78;7398351;19;20023;-66
2022/08/23 02:29:17;;;;;;;5.43;4.15;;;;;;;17.40;72.11;101129.84;7397595;19;20015;-65
2022/08/23 02:31:46;;;;;;;8.77;4.38;;;;;;;17.39;72.26;101129.00;7397825;19;20018;-65
2022/08/23 02:34:16;;;;;;;8.27;4.57;;;;;;;17.40;72.12;101132.50;7398812;19;20014;-65
2022/08/23 02:36:45;;;;;;;5.38;4.25;;;;;;;17.39;72.30;101128.16;7399931;19;20086;-65
2022/08/23 02:39:15;;;;;;;4.40;4.00;;;;;;;17.38;72.32;101124.63;7400413;19;20021;-65
2022/08/23 02:41:46;;;;;;;7.25;4.47;;;;;;;17.37;72.36;101125.53;7400231;19;20052;-65
2022/08/23 02:44:15;;;;;;;6.72;3.70;;;;;;;17.37;72.67;101125.53;7398259;19;20014;-65
2022/08/23 02:46:44;;;;;;;7.38;4.63;;;;;;;17.34;72.67;101123.03;7399642;19;20028;-65
2022/08/23 02:49:14;;;;;;;4.72;3.90;;;;;;;17.31;72.35;101136.41;7399534;19;20506;-65
2022/08/23 02:51:43;;;;;;;5.32;4.45;;;;;;;17.28;72.36;101135.72;7397674;19;20035;-65
2022/08/23 02:54:11;;;;;;;6.10;4.63;;;;;;;17.22;72.74;101136.81;7396945;19;20023;-65
2022/08/23 02:56:41;;;;;;;9.02;6.43;;;;;;;17.20;72.78;101138.66;7399257;19;20042;-65
2022/08/23 02:59:12;;;;;;;5.82;5.22;;;;;;;17.16;72.48;101137.09;7399350;19;20015;-65
2022/08/23 03:01:41;;;;;;;7.45;4.75;;;;;;;17.14;72.56;101133.66;7399181;19;20384;-65
2022/08/23 03:04:11;;;;;;;7.53;4.80;;;;;;;17.14;72.44;101136.31;7397530;19;20019;-65
2022/08/23 03:06:40;;;;;;;7.97;5.10;;;;;;;17.12;72.64;101140.81;7399453;19;20022;-65
2022/08/23 03:09:10;;;;;;;7.03;4.85;;;;;;;17.10;72.72;101149.69;7396864;19;20485;-65
2022/08/23 03:11:39;;;;;;;7.82;4.68;;;;;;;17.10;72.63;101144.38;7397170;19;20027;-65
2022/08/23 03:14:07;;;;;;;7.13;4.50;;;;;;;17.10;72.62;101143.53;7397465;19;20031;-65
2022/08/23 03:16:39;;;;;;;6.82;4.50;;;;;;;17.10;73.14;101152.34;7396146;19;20380;-65
2022/08/23 03:19:08;;;;;;;6.35;4.60;;;;;;;17.10;72.96;101148.84;7399215;19;20014;-65
2022/08/23 03:21:37;;;;;;;7.30;4.57;;;;;;;17.10;72.94;101151.47;7395977;19;20014;-65
2022/08/23 03:24:06;;;;;;;11.60;5.13;;;;;;;17.09;73.22;101152.41;7397109;19;20014;-65
2022/08/23 03:26:34;;;;;;;9.23;4.57;;;;;;;17.08;73.60;101151.53;7398562;19;20031;-65
2022/08/23 03:29:03;;;;;;;5.88;4.30;;;;;;;17.06;73.18;101153.41;7398354;19;20011;-65
2022/08/23 03:31:31;;;;;;;8.30;4.93;;;;;;;17.04;73.40;101152.59;7396058;19;20014;-65
2022/08/23 03:34:03;;;;;;;7.20;5.85;;;;;;;17.02;73.57;101157.13;7397101;19;20031;-65
2022/08/23 03:36:31;;;;;;;6.40;5.60;;;;;;;16.98;73.91;101152.84;7396772;19;20014;-65
2022/08/23 03:39:01;;;;;;;6.13;4.70;;;;;;;16.96;73.78;101160.03;7395600;19;20105;-65
2022/08/23 03:41:29;;;;;;;4.90;4.28;;;;;;;16.94;73.71;101154.75;7398547;19;20014;-65
2022/08/23 03:43:58;;;;;;;10.27;4.93;;;;;;;16.92;73.97;101150.44;7395634;19;20035;-65
2022/08/23 03:46:27;;;;;;;6.22;5.22;;;;;;;16.91;74.21;101159.34;7395292;19;20014;-65
2022/08/23 03:48:58;;;;;;;8.30;5.50;;;;;;;16.89;74.07;101151.41;7397709;19;20039;-65
2022/08/23 03:51:30;;;;;;;6.13;4.93;;;;;;;16.84;74.42;101156.03;7395539;19;20030;-65
2022/08/23 03:53:59;;;;;;;6.70;4.95;;;;;;;16.82;74.36;101157.91;7396329;19;20081;-65
2022/08/23 03:56:30;;;;;;;6.78;5.55;;;;;;;16.81;74.50;101165.91;7396668;19;20101;-65
2022/08/23 03:59:01;;;;;;;7.97;5.38;;;;;;;16.80;74.19;101162.41;7395608;19;20035;-65
2022/08/23 04:01:30;;;;;;;7.35;5.20;;;;;;;16.77;74.74;101166.03;7395327;19;20022;-65
2022/08/23 04:03:59;;;;;;;8.43;6.22;;;;;;;16.75;74.38;101159.94;7395872;19;20482;-65
2022/08/23 04:06:31;;;;;;;6.63;5.65;;;;;;;16.74;74.57;101168.81;7396659;19;20015;-65
2022/08/23 04:09:01;;;;;;;7.93;5.55;;;;;;;16.73;74.53;101167.09;7395117;19;20018;-65
2022/08/23 04:11:30;;;;;;;7.07;5.45;;;;;;;16.72;74.62;101170.66;7395943;19;20034;-65
2022/08/23 04:13:58;;;;;;;11.70;5.82;;;;;;;16.70;74.69;101174.31;7396741;19;20022;-65
2022/08/23 04:16:28;;;;;;;6.63;6.00;;;;;;;16.68;74.95;101166.44;7396454;19;20437;-65
2022/08/23 04:18:56;;;;;;;7.25;5.85;;;;;;;16.66;74.83;101170.06;7393218;19;20386;-65
2022/08/23 04:21:26;;;;;;;8.10;5.82;;;;;;;16.64;74.92;101164.81;7396541;19;20031;-65
2022/08/23 04:23:57;;;;;;;7.13;5.85;;;;;;;16.63;75.17;101168.41;7395710;19;20021;-65
2022/08/23 04:26:26;;;;;;;8.68;6.05;;;;;;;16.61;74.88;101160.50;7396231;19;20393;-65
2022/08/23 04:28:54;;;;;;;8.27;6.13;;;;;;;16.60;75.23;101161.44;7395369;19;20034;-65
2022/08/23 04:31:24;;;;;;;6.97;5.70;;;;;;;16.60;75.54;101169.38;7394779;19;20085;-65
2022/08/23 04:33:53;;;;;;;11.20;5.88;;;;;;;16.63;75.58;101171.06;7394801;19;20015;-65
2022/08/23 04:36:22;;;;;;;9.52;6.07;;;;;;;16.66;75.69;101172.72;7395246;19;20014;-65
2022/08/23 04:38:51;;;;;;;6.57;5.97;;;;;;;16.65;75.56;101169.19;7393488;19;20477;-65
2022/08/23 04:44:04;;;;;;;7.30;5.78;;;;;;;16.61;75.20;101167.59;7394840;19;20053;-66
2022/08/23 04:46:33;;;;;;;5.90;5.40;;;;;;;16.58;75.11;101167.69;7394301;19;20022;-65
2022/08/23 04:49:02;;;;;;;9.68;5.93;;;;;;;16.56;75.27;101169.56;7393901;19;20014;-65
2022/08/23 04:51:30;;;;;;;6.15;5.55;;;;;;;16.56;75.31;101174.84;7393269;19;20014;-65
2022/08/23 04:53:59;;;;;;;7.72;5.82;;;;;;;16.55;75.04;101184.56;7393633;19;20022;-65
2022/08/23 04:56:30;;;;;;;10.10;5.68;;;;;;;16.55;75.16;101189.88;7395290;19;20077;-65
2022/08/23 04:58:59;;;;;;;7.72;6.53;;;;;;;16.56;75.46;101186.31;7394128;19;20482;-66
2022/08/23 05:01:27;;;;;;;7.15;6.00;;;;;;;16.56;75.31;101190.75;7392629;19;20014;-66
2022/08/23 05:03:56;;;;;;;6.78;6.10;;;;;;;16.55;75.28;101184.56;7392108;19;20410;-66
2022/08/23 05:06:25;;;;;;;6.18;5.57;;;;;;;16.55;74.90;101191.66;7393857;19;20023;-65
2022/08/23 05:08:54;;;;;;;7.05;5.88;;;;;;;16.54;75.01;101193.47;7392255;19;20118;-65
2022/08/23 05:11:22;;;;;;;7.88;5.93;;;;;;;16.56;75.22;101199.56;7391193;19;20022;-65
2022/08/23 05:13:54;;;;;;;17.63;12.73;;;;;;;16.59;75.34;101199.44;7392623;19;20545;-64
2022/08/23 05:16:22;;;;;;;8.63;6.70;;;;;;;16.58;75.13;101196.84;7394580;19;20070;-65
2022/08/23 05:18:51;;;;;;;7.78;6.95;;;;;;;16.57;75.25;101200.44;7390781;19;20010;-65
2022/08/23 05:21:22;;;;;;;7.28;6.35;;;;;;;16.55;75.13;101200.47;7392882;19;20018;-64
2022/08/23 05:23:57;;;;;;;8.38;5.80;;;;;;;16.52;75.34;101200.59;7391751;19;20032;-65
2022/08/23 05:26:26;;;;;;;7.38;6.45;;;;;;;16.53;75.35;101196.16;7393751;19;20015;-65
2022/08/23 05:28:57;;;;;;;6.97;6.28;;;;;;;16.53;75.29;101197.03;7392889;19;20030;-65
2022/08/23 05:31:29;;;;;;;7.03;6.32;;;;;;;16.56;75.34;101201.34;7395330;19;20019;-66
2022/08/23 05:33:57;;;;;;;11.55;9.10;;;;;;;16.60;75.32;101202.94;7399787;19;20019;-65
2022/08/23 05:36:26;;;;;;;9.02;7.70;;;;;;;16.65;75.43;101206.28;7398451;19;20023;-66
2022/08/23 05:38:55;;;;;;;11.43;7.10;;;;;;;16.72;75.21;101209.53;7398828;19;20018;-66
2022/08/23 05:41:24;;;;;;;8.23;5.90;;;;;;;16.77;75.13;101204.94;7400753;19;20493;-66
2022/08/23 05:43:52;;;;;;;10.05;7.88;;;;;;;16.83;75.41;101209.97;7399593;19;20078;-66
2022/08/23 05:46:24;;;;;;;6.97;6.28;;;;;;;16.89;75.52;101212.38;7400405;19;20489;-65
2022/08/23 05:48:53;;;;;;;9.57;5.15;;;;;;;16.93;75.43;101207.84;7400537;19;20018;-65
2022/08/23 05:51:24;;;;;;;6.60;5.50;;;;;;;16.95;75.65;101211.28;7398866;19;20026;-66
2022/08/23 05:53:55;;;;;;;6.00;5.40;;;;;;;16.97;75.78;101212.06;7400654;19;20017;-66
2022/08/23 05:56:26;;;;;;;9.57;5.60;;;;;;;16.99;75.71;101207.59;7398758;19;20022;-65
2022/08/23 05:58:57;;;;;;;7.30;5.30;;;;;;;17.03;75.65;101225.06;7398681;19;20018;-66
2022/08/23 06:01:30;;;;;;;7.80;5.57;;;;;;;17.07;75.74;101209.91;7397790;19;20031;-66
2022/08/23 06:04:01;;;;;;;9.07;6.75;;;;;;;17.12;75.84;101215.03;7399638;19;20089;-66
2022/08/23 06:06:30;;;;;;;7.47;5.95;;;;;;;17.15;75.57;101209.59;7398071;19;20030;-66
2022/08/23 06:08:59;;;;;;;12.77;6.82;;;;;;;17.17;76.02;101208.59;7397525;19;20023;-65
2022/08/23 06:11:30;;;;;;;8.10;5.18;;;;;;;17.19;76.15;101217.38;7397395;19;20469;-66
2022/08/23 06:14:01;;;;;;;10.55;5.50;;;;;;;17.21;75.89;101217.28;7399278;19;20023;-66
2022/08/23 06:16:35;;;;;;;7.97;5.38;;;;;;;17.22;76.30;101213.72;7397377;19;20015;-66
2022/08/23 06:19:05;;;;;;;8.52;5.57;;;;;;;17.25;76.20;101216.25;7397841;19;20027;-66
2022/08/23 06:21:35;;;;;;;9.20;6.03;;;;;;;17.31;76.04;101220.44;7397389;19;20031;-66
2022/08/23 06:24:04;;;;;;;8.43;6.05;;;;;;;17.37;76.04;101217.50;7397018;19;20035;-66
2022/08/23 06:26:34;;;;;;;7.35;5.80;;;;;;;17.43;76.09;101228.72;7399482;19;20022;-66
2022/08/23 06:29:08;;;;;;;8.55;5.25;;;;;;;17.50;76.07;101232.00;7399315;19;20035;-64
2022/08/23 06:31:47;;;;;;;7.50;5.85;;;;;;;17.53;75.92;101231.00;7398339;19;20041;-66
2022/08/23 06:34:20;;;;;;;7.90;5.63;;;;;;;17.55;76.02;101223.81;7398348;19;20018;-66
2022/08/23 06:36:51;;;;;;;6.38;5.40;;;;;;;17.56;75.56;101225.53;7396410;19;20461;-66
2022/08/23 06:39:21;;;;;;;6.97;5.25;;;;;;;17.59;75.66;101230.69;7398999;19;20018;-66
2022/08/23 06:41:50;;;;;;;8.13;5.60;;;;;;;17.62;75.84;101219.97;7398299;19;20034;-65
2022/08/23 06:44:19;;;;;;;7.38;5.60;;;;;;;17.68;75.78;101225.00;7394901;19;20018;-65
2022/08/23 06:46:50;;;;;;;8.02;5.00;;;;;;;17.76;75.39;101224.66;7398659;19;20159;-66
2022/08/23 06:49:19;;;;;;;7.57;4.75;;;;;;;17.84;75.50;101230.47;7397333;19;20022;-65
2022/08/23 06:51:51;;;;;;;7.55;5.10;;;;;;;17.93;75.74;101229.22;7397919;19;20043;-67
2022/08/23 06:54:22;;;;;;;8.50;5.20;;;;;;;17.99;75.60;101228.97;7397249;19;20023;-66
2022/08/23 06:56:52;;;;;;;8.18;5.03;;;;;;;18.06;75.14;101230.41;7399467;19;20031;-66
2022/08/23 06:59:22;;;;;;;7.78;4.47;;;;;;;18.13;75.33;101224.84;7395621;19;20015;-66
2022/08/23 07:01:55;;;;;;;8.23;5.15;;;;;;;18.18;75.24;101228.97;7398094;19;20010;-66
2022/08/23 07:04:24;;;;;;;;;;;;;;;18.24;74.89;101238.47;7398608;19;20454;-65
2022/08/23 07:06:53;;;;;;;7.78;4.38;;;;;;;18.30;74.54;101232.88;7398989;19;19919;-66
2022/08/23 07:09:21;;;;;;;7.85;4.68;;;;;;;18.39;74.84;101232.44;7396652;19;20014;-66
2022/08/23 07:11:50;;;;;;;7.75;4.88;;;;;;;18.45;74.50;101226.00;7399547;19;20035;-66
2022/08/23 07:14:21;;;;;;;9.85;4.95;;;;;;;18.52;74.54;101227.41;7398485;19;20014;-66
2022/08/23 07:16:54;;;;;;;7.55;4.53;;;;;;;18.60;74.63;101236.81;7399571;19;20023;-66
2022/08/23 07:19:26;;;;;;;8.38;6.95;;;;;;;18.64;74.06;101231.28;7396071;19;20459;-67
2022/08/23 07:21:55;;;;;;;10.43;6.30;;;;;;;18.66;73.48;101233.88;7396423;19;20015;-72
2022/08/23 07:24:24;;;;;;;9.18;6.35;;;;;;;18.68;73.60;101237.34;7397023;19;20014;-65
2022/08/23 07:26:53;;;;;;;7.40;6.50;;;;;;;18.68;73.75;101243.50;7398979;19;20035;-65
2022/08/23 07:29:25;;;;;;;10.50;6.35;;;;;;;18.63;73.22;101237.53;7400030;19;20015;-66
2022/08/23 07:31:59;;;;;;;8.88;7.05;;;;;;;18.64;72.80;101238.38;7398207;19;20014;-65
2022/08/23 07:34:28;;;;;;;15.05;6.75;;;;;;;18.63;73.49;101237.53;7395997;19;20027;-65
2022/08/23 07:36:57;;;;;;;9.23;6.10;;;;;;;18.65;72.67;101240.13;7397557;19;20407;-66
2022/08/23 07:39:26;;;;;;;7.70;6.13;;;;;;;18.69;72.74;101242.56;7395206;19;20489;-65
2022/08/23 07:41:55;;;;;;;8.25;6.90;;;;;;;18.74;72.53;101234.38;7398105;19;20006;-65
2022/08/23 07:44:23;;;;;;;12.25;6.30;;;;;;;18.79;72.46;101245.66;7397031;19;20022;-65
2022/08/23 07:46:52;;;;;;;10.02;6.55;;;;;;;18.82;72.49;101239.31;7397568;19;20019;-65
2022/08/23 07:49:24;;;;;;;8.57;7.28;;;;;;;18.82;72.35;101241.97;7398430;19;20010;-66
2022/08/23 07:51:53;;;;;;;9.63;6.35;;;;;;;18.82;72.38;101245.50;7397719;19;20015;-66
2022/08/23 07:54:24;;;;;;;6.90;6.20;;;;;;;18.82;72.26;101241.97;7395064;19;20018;-65
2022/08/23 07:56:52;;;;;;;10.43;6.45;;;;;;;18.83;72.16;101236.59;7396266;19;20035;-66
2022/08/23 07:59:22;;;;;;;7.50;6.50;;;;;;;18.88;72.46;101239.88;7397540;19;20018;-66
2022/08/23 08:01:50;;;;;;;7.47;6.50;;;;;;;18.95;72.15;101244.94;7397518;19;20038;-67
2022/08/23 08:04:19;;;;;;;10.25;8.43;;;;;;;19.04;71.85;101241.81;7396725;19;20018;-67
2022/08/23 08:06:51;;;;;;;10.15;6.35;;;;;;;19.14;72.01;101248.38;7397224;19;20028;-67
2022/08/23 08:09:21;;;;;;;8.02;6.28;;;;;;;19.19;72.06;101249.00;7397239;19;20015;-66
2022/08/23 08:11:51;;;;;;;8.30;6.60;;;;;;;19.26;71.95;101249.59;7396499;19;20042;-66
2022/08/23 08:14:20;;;;;;;13.55;6.72;;;;;;;19.34;71.79;101251.84;7397136;19;20049;-67
2022/08/23 08:16:59;;;;;;;13.75;6.50;;;;;;;19.41;71.54;101247.97;7397790;19;20019;-66
2022/08/23 08:19:27;;;;;;;11.38;6.82;;;;;;;19.47;71.32;101252.94;7396263;19;20021;-66
2022/08/23 08:21:58;;;;;;;8.57;6.53;;;;;;;19.53;70.92;101244.66;7396891;19;20028;-67
2022/08/23 08:24:27;;;;;;;8.50;5.70;;;;;;;19.59;71.13;101251.47;7395043;19;20036;-66
2022/08/23 08:26:56;;;;;;;9.57;5.80;;;;;;;19.63;71.07;101249.50;7394412;19;20493;-66
2022/08/23 08:29:24;;;;;;;8.77;6.22;;;;;;;19.68;71.29;101250.97;7395878;19;20378;-65
2022/08/23 08:31:53;;;;;;;9.98;6.40;;;;;;;19.75;71.12;101245.34;7393659;19;20015;-65
2022/08/23 08:34:21;;;;;;;6.57;5.22;;;;;;;19.79;70.93;101245.09;7395815;19;20019;-66
2022/08/23 08:36:52;;;;;;;10.82;7.20;;;;;;;19.83;70.83;101253.81;7395375;19;20014;-66
2022/08/23 08:39:25;;;;;;;8.55;5.43;;;;;;;19.88;71.24;101256.22;7394031;19;20022;-67
2022/08/23 08:42:09;;;;;;;9.18;5.13;;;;;;;19.90;71.57;101252.53;7395208;19;20027;-67
2022/08/23 08:44:40;;;;;;;;;;;;;;;19.95;71.25;101261.13;7395866;19;20014;-66
2022/08/23 08:47:15;;;;;;;6.43;4.43;;;;;;;20.00;71.30;101260.91;7394369;19;19939;-66
2022/08/23 08:49:49;;;;;;;8.40;5.18;;;;;;;20.05;71.08;101258.84;7396302;19;20018;-66
2022/08/23 08:52:23;;;;;;;6.15;4.03;;;;;;;20.08;71.09;101257.81;7393543;19;20481;-66
2022/08/23 08:55:05;;;;;;;5.80;3.90;;;;;;;20.10;71.15;101258.63;7393917;19;20019;-66
2022/08/23 08:57:41;;;;;;;7.85;4.15;;;;;;;20.14;70.55;101254.84;7396106;19;20007;-66
2022/08/23 09:00:13;;;;;;;8.18;3.88;;;;;;;20.21;71.01;101260.69;7394690;19;20015;-66
2022/08/23 09:02:43;;;;;;;8.93;3.72;;;;;;;20.27;70.75;101253.25;7396567;19;20409;-66
2022/08/23 09:05:38;;;;;;;5.93;3.72;;;;;;;20.33;70.68;101260.91;7393100;19;20018;-66
2022/08/23 09:08:25;;;;;;;6.28;3.65;;;;;;;20.41;70.43;101260.47;7393237;19;20010;-66
2022/08/23 09:11:04;;;;;;;6.85;4.72;;;;;;;20.53;70.07;101244.75;7394946;19;20031;-66
2022/08/23 09:14:06;;;;;;;7.30;4.80;;;;;;;20.62;69.83;101252.22;7393052;19;20522;-66
2022/08/23 09:16:46;;;;;;;8.52;4.38;;;;;;;20.74;69.51;101246.25;7395323;19;20015;-66
2022/08/23 09:19:29;;;;;;;5.93;3.95;;;;;;;20.88;69.23;101245.44;7392545;19;20003;-66
2022/08/23 09:21:59;;;;;;;6.30;4.32;;;;;;;21.01;68.83;101242.09;7395557;19;20018;-66
2022/08/23 09:24:29;;;;;;;8.10;3.75;;;;;;;21.11;68.49;101249.44;7393856;19;20010;-67
2022/08/23 09:27:00;;;;;;;7.50;4.50;;;;;;;21.19;68.28;101254.34;7394498;19;20053;-67
2022/08/23 09:29:32;;;;;;;5.97;3.20;;;;;;;21.29;68.05;101250.19;7394965;19;20027;-67
2022/08/23 09:32:02;;;;;;;6.05;3.53;;;;;;;21.39;67.64;101246.97;7394830;19;20035;-66
2022/08/23 09:34:43;;;;;;;5.53;3.88;;;;;;;21.52;67.00;101252.44;7392694;19;20019;-66
2022/08/23 09:37:17;;;;;;;6.47;3.70;;;;;;;21.61;66.82;101246.56;7394762;19;20066;-66
2022/08/23 09:39:49;;;;;;;5.85;3.50;;;;;;;21.71;66.76;101246.88;7392646;19;20041;-66
2022/08/23 09:42:35;;;;;;;5.53;3.10;;;;;;;21.87;65.87;101254.81;7393467;19;20067;-65
2022/08/23 09:45:07;;;;;;;6.82;3.22;;;;;;;21.97;65.59;101251.47;7395043;19;20042;-66
2022/08/23 09:47:40;;;;;;;4.43;2.85;;;;;;;22.08;65.41;101255.31;7395370;19;20018;-66
2022/08/23 09:50:11;;;;;;;;;;;;;;;22.13;64.27;101245.19;7400030;19;20014;-67
2022/08/23 09:52:41;;;;;;;5.75;2.30;;;;;;;22.19;64.44;101244.81;7396185;19;19998;-67
2022/08/23 09:55:27;;;;;;;7.63;2.28;;;;;;;22.29;62.23;101248.63;7397219;19;20027;-67
2022/08/23 09:57:58;;;;;;;4.82;1.85;;;;;;;22.38;61.20;101251.66;7395509;19;20021;-66
2022/08/23 10:00:29;;;;;;;5.68;2.47;;;;;;;22.44;61.95;101252.16;7394875;19;20018;-66
2022/08/23 10:03:24;;;;;;;4.95;2.17;;;;;;;22.55;60.10;101242.59;7396205;19;20532;-67
2022/08/23 10:05:54;;;;;;;5.13;2.10;;;;;;;22.61;60.58;101245.72;7395895;19;20035;-66
2022/08/23 10:08:31;;;;;;;3.65;2.03;;;;;;;22.70;59.92;101251.44;7396417;19;20018;-65
2022/08/23 10:11:09;;;;;;;5.30;2.35;;;;;;;22.78;59.80;101244.63;7398381;19;20105;-67
2022/08/23 10:13:43;;;;;;;4.00;2.00;;;;;;;22.90;59.78;101234.94;7395670;19;20365;-66
2022/08/23 10:16:23;;;;;;;5.88;2.33;;;;;;;23.01;59.67;101238.69;7397012;19;20011;-65
2022/08/23 10:19:01;;;;;;;4.47;1.80;;;;;;;23.13;59.54;101237.00;7400908;19;20014;-66
2022/08/23 10:21:41;;;;;;;5.90;2.38;;;;;;;23.23;59.32;101241.69;7401821;19;20034;-66
2022/08/23 10:24:18;;;;;;;3.60;2.60;;;;;;;23.35;58.96;101242.66;7399459;19;20035;-66
2022/08/23 10:29:36;;;;;;;5.13;2.15;;;;;;;23.42;56.16;101238.63;7401150;19;20032;-66
2022/08/23 10:30:04;;;;;;;7.93;2.03;;;;;;;23.42;56.03;101248.47;7400757;19;20401;-66
2022/08/23 10:32:47;;;;;;;6.15;1.98;;;;;;;23.41;55.96;101241.41;7400699;19;20122;-66
2022/08/23 10:35:28;;;;;;;5.13;2.33;;;;;;;23.41;57.14;101244.09;7398958;19;20021;-66
2022/08/23 10:38:11;;;;;;;4.13;1.60;;;;;;;23.47;56.98;101242.78;7401548;19;20056;-65
2022/08/23 10:40:46;;;;;;;4.07;1.52;;;;;;;23.56;56.16;101239.50;7397838;19;20015;-66
2022/08/23 10:43:24;;;;;;;4.68;2.20;;;;;;;23.66;55.68;101237.06;7401108;19;20028;-66
2022/08/23 10:46:02;;;;;;;3.85;1.80;;;;;;;23.78;55.24;101240.69;7398475;19;20010;-65
2022/08/23 10:48:34;;;;;;;6.32;2.72;;;;;;;23.87;55.07;101232.88;7396767;19;20015;-67
2022/08/23 10:51:08;;;;;;;3.95;1.50;;;;;;;23.93;53.65;101238.78;7399578;19;20118;-68
2022/08/23 10:53:45;;;;;;;5.85;1.60;;;;;;;23.95;53.14;101236.84;7400136;19;20041;-67
2022/08/23 10:56:17;;;;;;;6.57;2.88;;;;;;;23.98;53.75;101233.97;7401394;19;20022;-66
2022/08/23 10:58:50;;;;;;;3.08;2.00;;;;;;;24.10;52.95;101248.31;7400873;19;20544;-66
2022/08/23 11:01:25;;;;;;;4.53;1.95;;;;;;;24.20;52.09;101244.88;7401705;19;20022;-66
2022/08/23 11:04:05;;;;;;;3.55;1.65;;;;;;;24.28;48.00;101244.31;7397625;19;20029;-66
2022/08/23 11:06:52;;;;;;;2.55;1.52;;;;;;;24.30;49.13;101246.88;7400781;19;20118;-66
2022/08/23 11:09:37;;;;;;;4.28;1.88;;;;;;;24.28;46.80;101246.16;7399709;19;20035;-66
2022/08/23 11:12:15;;;;;;;2.70;1.73;;;;;;;24.24;47.85;101248.19;7400037;19;20043;-65
2022/08/23 11:14:48;;;;;;;9.23;2.53;;;;;;;24.32;49.18;101243.13;7397559;19;20018;-65
2022/08/23 11:17:31;;;;;;;6.45;1.42;;;;;;;24.46;48.28;101244.78;7399609;19;20014;-66
2022/08/23 11:20:02;;;;;;;5.53;1.60;;;;;;;24.59;48.61;101243.91;7395793;19;20011;-66
2022/08/23 11:22:33;;;;;;;3.83;1.50;;;;;;;24.67;47.99;101241.56;7399272;19;20448;-67
2022/08/23 11:25:03;;;;;;;4.60;1.60;;;;;;;24.69;48.00;101242.28;7395153;19;20355;-67
2022/08/23 11:27:36;;;;;;;6.30;2.22;;;;;;;24.75;47.94;101244.53;7396758;19;20104;-66
2022/08/23 11:30:34;;;;;;;5.60;1.83;;;;;;;24.83;47.28;101242.13;7397322;19;20021;-69
2022/08/23 11:33:15;;;;;;;5.25;1.55;;;;;;;24.83;45.77;101247.50;7397231;19;20493;-67
2022/08/23 11:35:47;;;;;;;3.58;1.65;;;;;;;24.83;46.02;101252.00;7399173;19;20018;-67
2022/08/23 11:38:17;;;;;;;2.67;1.70;;;;;;;24.76;47.01;101243.56;7401773;19;20018;-66
2022/08/23 11:41:14;;;;;;;4.97;1.85;;;;;;;24.82;46.82;101244.91;7399593;19;20079;-67
2022/08/23 11:43:44;;;;;;;7.40;2.03;;;;;;;24.93;47.15;101241.44;7399250;19;20014;-67
2022/08/23 11:46:29;;;;;;;3.88;1.73;;;;;;;25.05;46.82;101246.72;7401430;19;20039;-67
2022/08/23 11:49:32;;;;;;;4.78;1.42;;;;;;;25.20;45.62;101255.47;7402074;19;20081;-67
2022/08/23 11:52:14;;;;;;;3.90;1.50;;;;;;;25.22;44.41;101260.72;7398555;19;20046;-67
2022/08/23 11:55:05;;;;;;;4.38;1.95;;;;;;;25.20;45.68;101251.94;7398726;19;20078;-68
2022/08/23 11:57:53;;;;;;;3.42;1.38;;;;;;;25.16;44.99;101251.31;7398382;19;20019;-67
2022/08/23 12:00:26;;;;;;;5.47;2.20;;;;;;;25.11;46.01;101250.81;7399192;19;20075;-68